sensor_id;sensor_type;location;lat;lon;timestamp;P1;durP1;ratioP1;P2;durP2;ratioP2
5349;SDS011;2697;42.144;24.794;2023-05-18T00:01:17;25.27;;;11.80;;
5349;SDS011;2697;42.144;24.794;2023-05-18T00:03:43;22.30;;;13.10;;
5349;SDS011;2697;42.144;24.794;2023-05-18T00:06:09;23.70;;;12.20;;
5349;SDS011;2697;42.144;24.794;2023-05-18T00:08:35;25.20;;;11.40;;
5349;SDS011;2697;42.144;24.794;2023-05-18T00:11:01;27.83;;;13.07;;
5349;SDS011;2697;42.144;24.794;2023-05-18T00:13:28;26.87;;;13.73;;
5349;SDS011;2697;42.144;24.794;2023-05-18T00:15:54;29.20;;;14.27;;
5349;SDS011;2697;42.144;24.794;2023-05-18T00:18:20;26.00;;;13.53;;
5349;SDS011;2697;42.144;24.794;2023-05-18T00:20:48;20.90;;;12.53;;
5349;SDS011;2697;42.144;24.794;2023-05-18T00:23:23;25.73;;;13.13;;
5349;SDS011;2697;42.144;24.794;2023-05-18T00:25:54;27.33;;;14.27;;
5349;SDS011;2697;42.144;24.794;2023-05-18T00:28:20;24.70;;;13.53;;
5349;SDS011;2697;42.144;24.794;2023-05-18T00:30:45;26.23;;;14.87;;
5349;SDS011;2697;42.144;24.794;2023-05-18T00:33:11;26.30;;;14.77;;
5349;SDS011;2697;42.144;24.794;2023-05-18T00:35:36;33.70;;;14.93;;
5349;SDS011;2697;42.144;24.794;2023-05-18T00:38:02;40.33;;;15.43;;
5349;SDS011;2697;42.144;24.794;2023-05-18T00:40:27;33.77;;;14.33;;
5349;SDS011;2697;42.144;24.794;2023-05-18T00:42:53;34.73;;;16.20;;
5349;SDS011;2697;42.144;24.794;2023-05-18T00:45:19;31.47;;;16.33;;
5349;SDS011;2697;42.144;24.794;2023-05-18T00:47:44;30.53;;;15.43;;
5349;SDS011;2697;42.144;24.794;2023-05-18T00:50:11;31.13;;;14.70;;
5349;SDS011;2697;42.144;24.794;2023-05-18T00:52:37;28.43;;;14.40;;
5349;SDS011;2697;42.144;24.794;2023-05-18T00:55:03;42.37;;;15.70;;
5349;SDS011;2697;42.144;24.794;2023-05-18T00:57:30;37.97;;;17.30;;
5349;SDS011;2697;42.144;24.794;2023-05-18T00:59:56;33.33;;;14.90;;
5349;SDS011;2697;42.144;24.794;2023-05-18T01:02:21;28.50;;;15.77;;
5349;SDS011;2697;42.144;24.794;2023-05-18T01:04:47;38.90;;;15.07;;
5349;SDS011;2697;42.144;24.794;2023-05-18T01:07:13;41.13;;;16.80;;
5349;SDS011;2697;42.144;24.794;2023-05-18T01:09:40;35.47;;;15.67;;
5349;SDS011;2697;42.144;24.794;2023-05-18T01:12:16;32.53;;;16.33;;
5349;SDS011;2697;42.144;24.794;2023-05-18T01:14:51;40.00;;;16.33;;
5349;SDS011;2697;42.144;24.794;2023-05-18T01:28:22;229.93;;;21.20;;
5349;SDS011;2697;42.144;24.794;2023-05-18T01:30:50;83.77;;;15.70;;
5349;SDS011;2697;42.144;24.794;2023-05-18T01:33:17;154.83;;;19.33;;
5349;SDS011;2697;42.144;24.794;2023-05-18T01:35:42;41.13;;;14.07;;
5349;SDS011;2697;42.144;24.794;2023-05-18T01:38:15;36.10;;;14.77;;
5349;SDS011;2697;42.144;24.794;2023-05-18T01:44:17;54.07;;;14.70;;
5349;SDS011;2697;42.144;24.794;2023-05-18T01:49:17;39.17;;;13.57;;
5349;SDS011;2697;42.144;24.794;2023-05-18T01:52:00;33.00;;;13.93;;
5349;SDS011;2697;42.144;24.794;2023-05-18T01:54:31;34.30;;;13.27;;
5349;SDS011;2697;42.144;24.794;2023-05-18T01:56:57;29.20;;;14.47;;
5349;SDS011;2697;42.144;24.794;2023-05-18T01:59:23;23.83;;;12.90;;
5349;SDS011;2697;42.144;24.794;2023-05-18T02:01:49;20.20;;;12.70;;
5349;SDS011;2697;42.144;24.794;2023-05-18T02:04:15;32.67;;;14.27;;
5349;SDS011;2697;42.144;24.794;2023-05-18T02:06:41;27.83;;;13.97;;
5349;SDS011;2697;42.144;24.794;2023-05-18T02:09:06;31.60;;;14.50;;
5349;SDS011;2697;42.144;24.794;2023-05-18T02:11:33;40.00;;;15.90;;
5349;SDS011;2697;42.144;24.794;2023-05-18T02:13:58;35.80;;;14.87;;
5349;SDS011;2697;42.144;24.794;2023-05-18T02:16:24;31.53;;;15.33;;
5349;SDS011;2697;42.144;24.794;2023-05-18T02:18:50;26.20;;;14.77;;
5349;SDS011;2697;42.144;24.794;2023-05-18T02:21:16;37.13;;;14.20;;
5349;SDS011;2697;42.144;24.794;2023-05-18T02:23:43;43.23;;;15.13;;
5349;SDS011;2697;42.144;24.794;2023-05-18T02:26:08;27.53;;;16.53;;
5349;SDS011;2697;42.144;24.794;2023-05-18T02:28:34;40.60;;;16.60;;
5349;SDS011;2697;42.144;24.794;2023-05-18T02:31:09;33.67;;;15.70;;
5349;SDS011;2697;42.144;24.794;2023-05-18T02:33:36;33.03;;;16.50;;
5349;SDS011;2697;42.144;24.794;2023-05-18T02:36:08;35.53;;;15.83;;
5349;SDS011;2697;42.144;24.794;2023-05-18T02:38:35;49.07;;;17.83;;
5349;SDS011;2697;42.144;24.794;2023-05-18T02:41:02;52.60;;;18.77;;
5349;SDS011;2697;42.144;24.794;2023-05-18T02:43:28;42.50;;;17.20;;
5349;SDS011;2697;42.144;24.794;2023-05-18T02:45:53;31.63;;;16.07;;
5349;SDS011;2697;42.144;24.794;2023-05-18T02:48:18;54.97;;;21.53;;
5349;SDS011;2697;42.144;24.794;2023-05-18T02:50:46;60.30;;;20.57;;
5349;SDS011;2697;42.144;24.794;2023-05-18T02:53:12;81.30;;;22.60;;
5349;SDS011;2697;42.144;24.794;2023-05-18T02:55:38;106.63;;;24.70;;
5349;SDS011;2697;42.144;24.794;2023-05-18T02:58:04;87.37;;;25.70;;
5349;SDS011;2697;42.144;24.794;2023-05-18T03:00:30;155.87;;;28.27;;
5349;SDS011;2697;42.144;24.794;2023-05-18T03:02:56;91.33;;;24.60;;
5349;SDS011;2697;42.144;24.794;2023-05-18T03:05:24;142.67;;;27.80;;
5349;SDS011;2697;42.144;24.794;2023-05-18T03:07:50;137.17;;;27.90;;
5349;SDS011;2697;42.144;24.794;2023-05-18T03:10:16;190.70;;;31.90;;
5349;SDS011;2697;42.144;24.794;2023-05-18T03:12:43;178.80;;;30.50;;
5349;SDS011;2697;42.144;24.794;2023-05-18T03:15:08;113.60;;;25.70;;
5349;SDS011;2697;42.144;24.794;2023-05-18T03:17:35;100.93;;;26.90;;
5349;SDS011;2697;42.144;24.794;2023-05-18T03:20:01;123.00;;;27.60;;
5349;SDS011;2697;42.144;24.794;2023-05-18T03:22:27;118.63;;;28.30;;
5349;SDS011;2697;42.144;24.794;2023-05-18T03:24:52;82.63;;;25.90;;
5349;SDS011;2697;42.144;24.794;2023-05-18T03:27:19;84.60;;;23.80;;
5349;SDS011;2697;42.144;24.794;2023-05-18T03:29:49;98.47;;;25.93;;
5349;SDS011;2697;42.144;24.794;2023-05-18T03:32:16;106.87;;;28.60;;
5349;SDS011;2697;42.144;24.794;2023-05-18T03:34:45;143.40;;;30.03;;
5349;SDS011;2697;42.144;24.794;2023-05-18T03:37:12;98.77;;;28.90;;
5349;SDS011;2697;42.144;24.794;2023-05-18T03:39:38;109.90;;;29.77;;
5349;SDS011;2697;42.144;24.794;2023-05-18T03:42:03;87.47;;;27.30;;
5349;SDS011;2697;42.144;24.794;2023-05-18T03:44:29;96.00;;;29.10;;
5349;SDS011;2697;42.144;24.794;2023-05-18T03:46:54;104.20;;;30.37;;
5349;SDS011;2697;42.144;24.794;2023-05-18T03:49:20;125.97;;;28.53;;
5349;SDS011;2697;42.144;24.794;2023-05-18T03:51:45;105.00;;;27.80;;
5349;SDS011;2697;42.144;24.794;2023-05-18T03:54:11;95.53;;;28.23;;
5349;SDS011;2697;42.144;24.794;2023-05-18T03:56:36;97.27;;;26.13;;
5349;SDS011;2697;42.144;24.794;2023-05-18T03:59:01;104.63;;;29.77;;
5349;SDS011;2697;42.144;24.794;2023-05-18T04:01:28;101.93;;;29.20;;
5349;SDS011;2697;42.144;24.794;2023-05-18T04:03:58;94.37;;;27.17;;
5349;SDS011;2697;42.144;24.794;2023-05-18T04:06:24;111.87;;;29.40;;
5349;SDS011;2697;42.144;24.794;2023-05-18T04:08:50;72.80;;;25.70;;
5349;SDS011;2697;42.144;24.794;2023-05-18T04:11:19;110.07;;;27.43;;
5349;SDS011;2697;42.144;24.794;2023-05-18T04:13:46;90.27;;;24.57;;
5349;SDS011;2697;42.144;24.794;2023-05-18T04:16:12;80.43;;;25.77;;
5349;SDS011;2697;42.144;24.794;2023-05-18T04:18:40;75.87;;;24.60;;
5349;SDS011;2697;42.144;24.794;2023-05-18T04:21:06;75.40;;;24.70;;
5349;SDS011;2697;42.144;24.794;2023-05-18T04:23:32;85.00;;;24.00;;
5349;SDS011;2697;42.144;24.794;2023-05-18T04:26:02;83.10;;;24.50;;
5349;SDS011;2697;42.144;24.794;2023-05-18T04:28:29;96.23;;;25.80;;
5349;SDS011;2697;42.144;24.794;2023-05-18T04:30:55;71.03;;;24.60;;
5349;SDS011;2697;42.144;24.794;2023-05-18T04:33:20;67.13;;;23.40;;
5349;SDS011;2697;42.144;24.794;2023-05-18T04:35:46;64.93;;;22.67;;
5349;SDS011;2697;42.144;24.794;2023-05-18T04:38:11;78.37;;;24.97;;
5349;SDS011;2697;42.144;24.794;2023-05-18T04:40:36;89.20;;;25.43;;
5349;SDS011;2697;42.144;24.794;2023-05-18T04:43:06;54.83;;;23.17;;
5349;SDS011;2697;42.144;24.794;2023-05-18T04:45:32;67.60;;;24.10;;
5349;SDS011;2697;42.144;24.794;2023-05-18T04:47:58;66.00;;;23.30;;
5349;SDS011;2697;42.144;24.794;2023-05-18T04:50:23;64.57;;;23.47;;
5349;SDS011;2697;42.144;24.794;2023-05-18T04:52:49;62.40;;;22.30;;
5349;SDS011;2697;42.144;24.794;2023-05-18T04:55:16;83.47;;;25.67;;
5349;SDS011;2697;42.144;24.794;2023-05-18T04:57:47;60.17;;;23.17;;
5349;SDS011;2697;42.144;24.794;2023-05-18T05:00:18;67.90;;;22.07;;
5349;SDS011;2697;42.144;24.794;2023-05-18T05:02:44;82.97;;;29.80;;
5349;SDS011;2697;42.144;24.794;2023-05-18T05:05:10;75.43;;;30.87;;
5349;SDS011;2697;42.144;24.794;2023-05-18T05:07:35;61.07;;;27.33;;
5349;SDS011;2697;42.144;24.794;2023-05-18T05:10:01;66.67;;;33.37;;
5349;SDS011;2697;42.144;24.794;2023-05-18T05:12:27;71.93;;;26.17;;
5349;SDS011;2697;42.144;24.794;2023-05-18T05:14:52;56.97;;;24.33;;
5349;SDS011;2697;42.144;24.794;2023-05-18T05:17:18;63.27;;;25.83;;
5349;SDS011;2697;42.144;24.794;2023-05-18T05:19:44;57.17;;;25.50;;
5349;SDS011;2697;42.144;24.794;2023-05-18T05:22:09;55.30;;;22.97;;
5349;SDS011;2697;42.144;24.794;2023-05-18T05:24:35;52.00;;;22.27;;
5349;SDS011;2697;42.144;24.794;2023-05-18T05:27:00;54.20;;;22.40;;
5349;SDS011;2697;42.144;24.794;2023-05-18T05:29:26;53.93;;;21.93;;
5349;SDS011;2697;42.144;24.794;2023-05-18T05:31:52;53.20;;;20.53;;
5349;SDS011;2697;42.144;24.794;2023-05-18T05:34:17;47.83;;;21.83;;
5349;SDS011;2697;42.144;24.794;2023-05-18T05:36:42;52.20;;;19.33;;
5349;SDS011;2697;42.144;24.794;2023-05-18T05:39:08;43.30;;;18.70;;
5349;SDS011;2697;42.144;24.794;2023-05-18T05:41:33;48.17;;;21.40;;
5349;SDS011;2697;42.144;24.794;2023-05-18T05:43:59;59.83;;;24.50;;
5349;SDS011;2697;42.144;24.794;2023-05-18T05:46:24;56.20;;;24.17;;
5349;SDS011;2697;42.144;24.794;2023-05-18T05:48:49;54.27;;;23.17;;
5349;SDS011;2697;42.144;24.794;2023-05-18T05:51:15;58.00;;;25.37;;
5349;SDS011;2697;42.144;24.794;2023-05-18T05:53:41;60.07;;;27.27;;
5349;SDS011;2697;42.144;24.794;2023-05-18T05:56:07;68.03;;;28.20;;
5349;SDS011;2697;42.144;24.794;2023-05-18T05:58:32;49.40;;;26.00;;
5349;SDS011;2697;42.144;24.794;2023-05-18T06:00:58;69.43;;;29.23;;
5349;SDS011;2697;42.144;24.794;2023-05-18T06:03:23;63.40;;;27.20;;
5349;SDS011;2697;42.144;24.794;2023-05-18T06:05:49;63.23;;;29.00;;
5349;SDS011;2697;42.144;24.794;2023-05-18T06:08:14;60.30;;;25.30;;
5349;SDS011;2697;42.144;24.794;2023-05-18T06:10:40;53.97;;;22.93;;
5349;SDS011;2697;42.144;24.794;2023-05-18T06:13:07;46.53;;;22.10;;
5349;SDS011;2697;42.144;24.794;2023-05-18T06:15:32;47.70;;;23.57;;
5349;SDS011;2697;42.144;24.794;2023-05-18T06:17:58;60.30;;;21.87;;
5349;SDS011;2697;42.144;24.794;2023-05-18T06:20:23;47.97;;;22.83;;
5349;SDS011;2697;42.144;24.794;2023-05-18T06:22:50;47.63;;;22.50;;
5349;SDS011;2697;42.144;24.794;2023-05-18T06:25:15;47.50;;;24.40;;
5349;SDS011;2697;42.144;24.794;2023-05-18T06:27:41;58.40;;;25.83;;
5349;SDS011;2697;42.144;24.794;2023-05-18T06:30:08;58.10;;;25.30;;
5349;SDS011;2697;42.144;24.794;2023-05-18T06:32:35;54.80;;;22.67;;
5349;SDS011;2697;42.144;24.794;2023-05-18T06:35:01;56.03;;;24.60;;
5349;SDS011;2697;42.144;24.794;2023-05-18T06:37:28;54.93;;;25.00;;
5349;SDS011;2697;42.144;24.794;2023-05-18T06:39:53;47.60;;;24.40;;
5349;SDS011;2697;42.144;24.794;2023-05-18T06:42:19;54.37;;;23.00;;
5349;SDS011;2697;42.144;24.794;2023-05-18T06:44:44;46.30;;;22.93;;
5349;SDS011;2697;42.144;24.794;2023-05-18T06:47:10;55.50;;;25.23;;
5349;SDS011;2697;42.144;24.794;2023-05-18T06:49:35;50.47;;;22.13;;
5349;SDS011;2697;42.144;24.794;2023-05-18T06:52:01;42.37;;;19.37;;
5349;SDS011;2697;42.144;24.794;2023-05-18T06:54:27;44.40;;;19.80;;
5349;SDS011;2697;42.144;24.794;2023-05-18T06:56:53;48.00;;;20.50;;
5349;SDS011;2697;42.144;24.794;2023-05-18T06:59:19;41.60;;;20.17;;
5349;SDS011;2697;42.144;24.794;2023-05-18T07:01:44;37.30;;;17.07;;
5349;SDS011;2697;42.144;24.794;2023-05-18T07:04:10;24.63;;;14.17;;
5349;SDS011;2697;42.144;24.794;2023-05-18T07:06:35;22.80;;;12.77;;
5349;SDS011;2697;42.144;24.794;2023-05-18T07:09:01;30.00;;;10.60;;
5349;SDS011;2697;42.144;24.794;2023-05-18T07:11:27;20.33;;;10.67;;
5349;SDS011;2697;42.144;24.794;2023-05-18T07:13:52;22.10;;;9.90;;
5349;SDS011;2697;42.144;24.794;2023-05-18T07:16:18;18.37;;;9.60;;
5349;SDS011;2697;42.144;24.794;2023-05-18T07:18:43;16.63;;;10.20;;
5349;SDS011;2697;42.144;24.794;2023-05-18T07:21:08;24.67;;;10.93;;
5349;SDS011;2697;42.144;24.794;2023-05-18T07:23:34;26.53;;;9.90;;
5349;SDS011;2697;42.144;24.794;2023-05-18T07:25:59;22.37;;;10.03;;
5349;SDS011;2697;42.144;24.794;2023-05-18T07:28:25;15.67;;;8.90;;
5349;SDS011;2697;42.144;24.794;2023-05-18T07:30:50;18.03;;;9.20;;
5349;SDS011;2697;42.144;24.794;2023-05-18T07:33:16;14.87;;;9.23;;
5349;SDS011;2697;42.144;24.794;2023-05-18T07:35:41;11.70;;;7.80;;
5349;SDS011;2697;42.144;24.794;2023-05-18T07:38:06;15.50;;;9.03;;
5349;SDS011;2697;42.144;24.794;2023-05-18T07:40:32;18.70;;;9.20;;
5349;SDS011;2697;42.144;24.794;2023-05-18T07:42:57;14.40;;;8.13;;
5349;SDS011;2697;42.144;24.794;2023-05-18T07:45:23;21.80;;;8.27;;
5349;SDS011;2697;42.144;24.794;2023-05-18T07:47:48;11.63;;;7.60;;
5349;SDS011;2697;42.144;24.794;2023-05-18T07:50:14;24.17;;;6.97;;
5349;SDS011;2697;42.144;24.794;2023-05-18T07:52:39;11.20;;;6.27;;
5349;SDS011;2697;42.144;24.794;2023-05-18T07:55:05;10.37;;;6.70;;
5349;SDS011;2697;42.144;24.794;2023-05-18T07:57:31;14.83;;;6.93;;
5349;SDS011;2697;42.144;24.794;2023-05-18T07:59:59;14.13;;;8.57;;
5349;SDS011;2697;42.144;24.794;2023-05-18T08:02:24;11.83;;;7.57;;
5349;SDS011;2697;42.144;24.794;2023-05-18T08:04:50;12.70;;;7.27;;
5349;SDS011;2697;42.144;24.794;2023-05-18T08:07:15;11.33;;;6.70;;
5349;SDS011;2697;42.144;24.794;2023-05-18T08:09:42;15.30;;;8.37;;
5349;SDS011;2697;42.144;24.794;2023-05-18T08:12:08;13.00;;;6.63;;
5349;SDS011;2697;42.144;24.794;2023-05-18T08:14:33;10.57;;;7.37;;
5349;SDS011;2697;42.144;24.794;2023-05-18T08:16:59;9.40;;;6.53;;
5349;SDS011;2697;42.144;24.794;2023-05-18T08:19:24;8.33;;;6.27;;
5349;SDS011;2697;42.144;24.794;2023-05-18T08:21:50;10.00;;;5.70;;
5349;SDS011;2697;42.144;24.794;2023-05-18T08:24:15;11.73;;;5.13;;
5349;SDS011;2697;42.144;24.794;2023-05-18T08:26:41;7.70;;;5.13;;
5349;SDS011;2697;42.144;24.794;2023-05-18T08:29:06;10.23;;;5.60;;
5349;SDS011;2697;42.144;24.794;2023-05-18T08:31:35;15.10;;;6.40;;
5349;SDS011;2697;42.144;24.794;2023-05-18T08:34:02;12.83;;;6.43;;
5349;SDS011;2697;42.144;24.794;2023-05-18T08:36:28;11.50;;;7.87;;
5349;SDS011;2697;42.144;24.794;2023-05-18T08:38:55;14.37;;;6.77;;
5349;SDS011;2697;42.144;24.794;2023-05-18T08:44:40;34.47;;;7.27;;
5349;SDS011;2697;42.144;24.794;2023-05-18T08:47:09;15.50;;;6.13;;
5349;SDS011;2697;42.144;24.794;2023-05-18T08:49:35;16.83;;;5.83;;
5349;SDS011;2697;42.144;24.794;2023-05-18T08:52:02;11.67;;;6.20;;
5349;SDS011;2697;42.144;24.794;2023-05-18T08:54:29;10.93;;;5.70;;
5349;SDS011;2697;42.144;24.794;2023-05-18T08:56:55;14.40;;;5.50;;
5349;SDS011;2697;42.144;24.794;2023-05-18T08:59:23;9.70;;;5.13;;
5349;SDS011;2697;42.144;24.794;2023-05-18T09:01:50;15.00;;;5.20;;
5349;SDS011;2697;42.144;24.794;2023-05-18T09:04:18;18.27;;;5.70;;
5349;SDS011;2697;42.144;24.794;2023-05-18T09:06:46;13.00;;;5.50;;
5349;SDS011;2697;42.144;24.794;2023-05-18T09:09:13;11.53;;;4.00;;
5349;SDS011;2697;42.144;24.794;2023-05-18T09:11:38;14.80;;;4.40;;
5349;SDS011;2697;42.144;24.794;2023-05-18T09:14:05;11.80;;;4.77;;
5349;SDS011;2697;42.144;24.794;2023-05-18T09:16:30;10.40;;;3.63;;
5349;SDS011;2697;42.144;24.794;2023-05-18T09:18:57;7.53;;;3.83;;
5349;SDS011;2697;42.144;24.794;2023-05-18T09:21:23;10.97;;;3.93;;
5349;SDS011;2697;42.144;24.794;2023-05-18T09:23:48;10.43;;;4.17;;
5349;SDS011;2697;42.144;24.794;2023-05-18T09:26:14;15.93;;;3.40;;
5349;SDS011;2697;42.144;24.794;2023-05-18T09:28:40;7.23;;;3.50;;
5349;SDS011;2697;42.144;24.794;2023-05-18T09:31:08;13.67;;;3.40;;
5349;SDS011;2697;42.144;24.794;2023-05-18T09:33:37;5.50;;;3.03;;
5349;SDS011;2697;42.144;24.794;2023-05-18T09:36:04;12.13;;;3.93;;
5349;SDS011;2697;42.144;24.794;2023-05-18T09:38:35;6.73;;;3.30;;
5349;SDS011;2697;42.144;24.794;2023-05-18T09:41:01;10.17;;;3.30;;
5349;SDS011;2697;42.144;24.794;2023-05-18T09:43:26;10.83;;;3.03;;
5349;SDS011;2697;42.144;24.794;2023-05-18T09:45:52;12.50;;;3.13;;
5349;SDS011;2697;42.144;24.794;2023-05-18T09:48:18;11.93;;;3.13;;
5349;SDS011;2697;42.144;24.794;2023-05-18T09:50:43;6.63;;;2.80;;
5349;SDS011;2697;42.144;24.794;2023-05-18T09:53:09;13.10;;;3.10;;
5349;SDS011;2697;42.144;24.794;2023-05-18T09:55:37;7.90;;;2.87;;
5349;SDS011;2697;42.144;24.794;2023-05-18T09:58:09;11.50;;;5.10;;
5349;SDS011;2697;42.144;24.794;2023-05-18T10:00:36;9.23;;;2.93;;
5349;SDS011;2697;42.144;24.794;2023-05-18T10:03:04;11.33;;;3.20;;
5349;SDS011;2697;42.144;24.794;2023-05-18T10:05:41;7.53;;;3.90;;
5349;SDS011;2697;42.144;24.794;2023-05-18T10:08:06;7.50;;;3.10;;
5349;SDS011;2697;42.144;24.794;2023-05-18T10:10:32;3.53;;;2.43;;
5349;SDS011;2697;42.144;24.794;2023-05-18T10:13:02;10.30;;;2.40;;
5349;SDS011;2697;42.144;24.794;2023-05-18T10:15:28;6.73;;;3.20;;
5349;SDS011;2697;42.144;24.794;2023-05-18T10:17:55;11.10;;;2.87;;
5349;SDS011;2697;42.144;24.794;2023-05-18T10:20:21;10.83;;;3.67;;
5349;SDS011;2697;42.144;24.794;2023-05-18T10:22:51;7.90;;;2.47;;
5349;SDS011;2697;42.144;24.794;2023-05-18T10:25:20;4.43;;;2.50;;
5349;SDS011;2697;42.144;24.794;2023-05-18T10:27:48;11.40;;;3.50;;
5349;SDS011;2697;42.144;24.794;2023-05-18T10:30:14;7.53;;;2.50;;
5349;SDS011;2697;42.144;24.794;2023-05-18T10:32:44;13.53;;;3.47;;
5349;SDS011;2697;42.144;24.794;2023-05-18T10:35:09;11.73;;;2.63;;
5349;SDS011;2697;42.144;24.794;2023-05-18T10:37:37;4.57;;;2.37;;
5349;SDS011;2697;42.144;24.794;2023-05-18T10:40:05;4.50;;;2.23;;
5349;SDS011;2697;42.144;24.794;2023-05-18T10:42:32;4.60;;;2.50;;
5349;SDS011;2697;42.144;24.794;2023-05-18T10:44:59;5.77;;;2.20;;
5349;SDS011;2697;42.144;24.794;2023-05-18T10:47:28;5.70;;;2.40;;
5349;SDS011;2697;42.144;24.794;2023-05-18T10:49:54;9.60;;;2.40;;
5349;SDS011;2697;42.144;24.794;2023-05-18T10:52:22;4.00;;;2.33;;
5349;SDS011;2697;42.144;24.794;2023-05-18T10:54:50;6.60;;;4.20;;
5349;SDS011;2697;42.144;24.794;2023-05-18T10:57:17;4.00;;;2.17;;
5349;SDS011;2697;42.144;24.794;2023-05-18T10:59:45;2.47;;;1.90;;
5349;SDS011;2697;42.144;24.794;2023-05-18T11:02:11;6.80;;;3.23;;
5349;SDS011;2697;42.144;24.794;2023-05-18T11:04:39;35.77;;;3.00;;
5349;SDS011;2697;42.144;24.794;2023-05-18T11:07:09;12.67;;;5.17;;
5349;SDS011;2697;42.144;24.794;2023-05-18T11:09:36;7.63;;;4.27;;
5349;SDS011;2697;42.144;24.794;2023-05-18T11:12:05;5.37;;;3.27;;
5349;SDS011;2697;42.144;24.794;2023-05-18T11:14:36;4.10;;;2.10;;
5349;SDS011;2697;42.144;24.794;2023-05-18T11:17:22;10.17;;;2.43;;
5349;SDS011;2697;42.144;24.794;2023-05-18T11:23:06;12.57;;;2.63;;
5349;SDS011;2697;42.144;24.794;2023-05-18T11:27:53;12.23;;;4.00;;
5349;SDS011;2697;42.144;24.794;2023-05-18T11:35:33;5.37;;;2.67;;
5349;SDS011;2697;42.144;24.794;2023-05-18T11:38:17;8.10;;;2.80;;
5349;SDS011;2697;42.144;24.794;2023-05-18T11:40:44;14.63;;;3.60;;
5349;SDS011;2697;42.144;24.794;2023-05-18T11:43:20;8.40;;;3.03;;
5349;SDS011;2697;42.144;24.794;2023-05-18T11:45:52;10.30;;;3.57;;
5349;SDS011;2697;42.144;24.794;2023-05-18T11:48:22;6.50;;;3.37;;
5349;SDS011;2697;42.144;24.794;2023-05-18T11:50:48;16.33;;;4.20;;
5349;SDS011;2697;42.144;24.794;2023-05-18T11:53:17;11.67;;;4.40;;
5349;SDS011;2697;42.144;24.794;2023-05-18T11:55:43;13.33;;;4.40;;
5349;SDS011;2697;42.144;24.794;2023-05-18T11:58:09;11.93;;;4.20;;
5349;SDS011;2697;42.144;24.794;2023-05-18T12:00:36;15.20;;;4.47;;
5349;SDS011;2697;42.144;24.794;2023-05-18T12:03:02;10.83;;;4.40;;
5349;SDS011;2697;42.144;24.794;2023-05-18T12:05:30;9.87;;;4.43;;
5349;SDS011;2697;42.144;24.794;2023-05-18T12:07:58;30.67;;;4.33;;
5349;SDS011;2697;42.144;24.794;2023-05-18T12:10:24;10.73;;;4.83;;
5349;SDS011;2697;42.144;24.794;2023-05-18T12:12:52;10.03;;;4.50;;
5349;SDS011;2697;42.144;24.794;2023-05-18T12:15:22;10.37;;;5.10;;
5349;SDS011;2697;42.144;24.794;2023-05-18T12:17:48;13.50;;;4.63;;
5349;SDS011;2697;42.144;24.794;2023-05-18T12:20:15;13.27;;;4.87;;
5349;SDS011;2697;42.144;24.794;2023-05-18T12:22:49;7.60;;;4.37;;
5349;SDS011;2697;42.144;24.794;2023-05-18T12:25:20;15.00;;;4.33;;
5349;SDS011;2697;42.144;24.794;2023-05-18T12:27:48;12.70;;;4.60;;
5349;SDS011;2697;42.144;24.794;2023-05-18T12:30:16;9.67;;;5.17;;
5349;SDS011;2697;42.144;24.794;2023-05-18T12:32:55;13.90;;;4.40;;
5349;SDS011;2697;42.144;24.794;2023-05-18T12:35:21;11.20;;;4.00;;
5349;SDS011;2697;42.144;24.794;2023-05-18T12:37:47;10.13;;;4.90;;
5349;SDS011;2697;42.144;24.794;2023-05-18T12:40:14;8.57;;;4.63;;
5349;SDS011;2697;42.144;24.794;2023-05-18T12:42:56;13.37;;;4.60;;
5349;SDS011;2697;42.144;24.794;2023-05-18T12:45:28;15.40;;;5.40;;
5349;SDS011;2697;42.144;24.794;2023-05-18T12:48:10;11.57;;;4.37;;
5349;SDS011;2697;42.144;24.794;2023-05-18T12:50:44;11.43;;;5.43;;
5349;SDS011;2697;42.144;24.794;2023-05-18T12:53:10;11.13;;;4.70;;
5349;SDS011;2697;42.144;24.794;2023-05-18T12:55:36;9.90;;;4.80;;
5349;SDS011;2697;42.144;24.794;2023-05-18T12:58:04;12.47;;;4.47;;
5349;SDS011;2697;42.144;24.794;2023-05-18T13:00:34;8.43;;;4.20;;
5349;SDS011;2697;42.144;24.794;2023-05-18T13:03:19;10.20;;;4.10;;
5349;SDS011;2697;42.144;24.794;2023-05-18T13:06:00;9.30;;;4.20;;
5349;SDS011;2697;42.144;24.794;2023-05-18T13:08:26;6.33;;;3.57;;
5349;SDS011;2697;42.144;24.794;2023-05-18T13:10:52;16.20;;;4.10;;
5349;SDS011;2697;42.144;24.794;2023-05-18T13:13:17;4.57;;;3.83;;
5349;SDS011;2697;42.144;24.794;2023-05-18T13:15:43;7.80;;;3.27;;
5349;SDS011;2697;42.144;24.794;2023-05-18T13:18:09;10.03;;;5.10;;
5349;SDS011;2697;42.144;24.794;2023-05-18T13:20:39;6.67;;;3.53;;
5349;SDS011;2697;42.144;24.794;2023-05-18T13:23:09;11.93;;;2.97;;
5349;SDS011;2697;42.144;24.794;2023-05-18T13:25:36;10.87;;;3.30;;
5349;SDS011;2697;42.144;24.794;2023-05-18T13:28:02;6.33;;;3.67;;
5349;SDS011;2697;42.144;24.794;2023-05-18T13:30:28;7.40;;;4.33;;
5349;SDS011;2697;42.144;24.794;2023-05-18T13:32:54;7.13;;;3.83;;
5349;SDS011;2697;42.144;24.794;2023-05-18T13:35:21;10.50;;;4.07;;
5349;SDS011;2697;42.144;24.794;2023-05-18T13:37:47;5.40;;;3.40;;
5349;SDS011;2697;42.144;24.794;2023-05-18T13:40:14;6.33;;;4.57;;
5349;SDS011;2697;42.144;24.794;2023-05-18T13:42:40;9.80;;;4.20;;
5349;SDS011;2697;42.144;24.794;2023-05-18T13:45:06;8.43;;;3.63;;
5349;SDS011;2697;42.144;24.794;2023-05-18T13:47:32;7.20;;;4.10;;
5349;SDS011;2697;42.144;24.794;2023-05-18T13:49:58;8.80;;;3.43;;
5349;SDS011;2697;42.144;24.794;2023-05-18T13:52:23;13.40;;;3.83;;
5349;SDS011;2697;42.144;24.794;2023-05-18T13:54:48;7.77;;;3.50;;
5349;SDS011;2697;42.144;24.794;2023-05-18T13:57:14;7.70;;;4.13;;
5349;SDS011;2697;42.144;24.794;2023-05-18T13:59:39;9.00;;;3.93;;
5349;SDS011;2697;42.144;24.794;2023-05-18T14:02:05;9.67;;;5.10;;
5349;SDS011;2697;42.144;24.794;2023-05-18T14:04:31;14.13;;;3.67;;
5349;SDS011;2697;42.144;24.794;2023-05-18T14:06:56;17.67;;;3.97;;
5349;SDS011;2697;42.144;24.794;2023-05-18T14:09:22;8.73;;;4.37;;
5349;SDS011;2697;42.144;24.794;2023-05-18T14:11:48;5.80;;;3.30;;
5349;SDS011;2697;42.144;24.794;2023-05-18T14:14:14;6.90;;;2.90;;
5349;SDS011;2697;42.144;24.794;2023-05-18T14:16:39;5.03;;;3.63;;
5349;SDS011;2697;42.144;24.794;2023-05-18T14:19:05;15.40;;;4.90;;
5349;SDS011;2697;42.144;24.794;2023-05-18T14:21:30;3.47;;;2.57;;
5349;SDS011;2697;42.144;24.794;2023-05-18T14:23:55;10.53;;;3.33;;
5349;SDS011;2697;42.144;24.794;2023-05-18T14:26:21;6.80;;;2.67;;
5349;SDS011;2697;42.144;24.794;2023-05-18T14:28:46;14.63;;;3.50;;
5349;SDS011;2697;42.144;24.794;2023-05-18T14:31:12;9.77;;;2.77;;
5349;SDS011;2697;42.144;24.794;2023-05-18T14:33:37;4.50;;;2.27;;
5349;SDS011;2697;42.144;24.794;2023-05-18T14:36:03;4.07;;;2.20;;
5349;SDS011;2697;42.144;24.794;2023-05-18T14:38:28;7.10;;;2.90;;
5349;SDS011;2697;42.144;24.794;2023-05-18T14:40:53;4.73;;;2.63;;
5349;SDS011;2697;42.144;24.794;2023-05-18T14:43:19;8.50;;;3.03;;
5349;SDS011;2697;42.144;24.794;2023-05-18T14:45:45;4.13;;;2.37;;
5349;SDS011;2697;42.144;24.794;2023-05-18T14:48:10;6.30;;;2.70;;
5349;SDS011;2697;42.144;24.794;2023-05-18T14:50:36;4.67;;;2.20;;
5349;SDS011;2697;42.144;24.794;2023-05-18T14:53:01;3.17;;;2.27;;
5349;SDS011;2697;42.144;24.794;2023-05-18T14:55:27;4.00;;;1.83;;
5349;SDS011;2697;42.144;24.794;2023-05-18T14:57:52;8.30;;;2.17;;
5349;SDS011;2697;42.144;24.794;2023-05-18T15:00:17;3.60;;;2.03;;
5349;SDS011;2697;42.144;24.794;2023-05-18T15:02:43;2.73;;;1.80;;
5349;SDS011;2697;42.144;24.794;2023-05-18T15:05:08;1.87;;;1.40;;
5349;SDS011;2697;42.144;24.794;2023-05-18T15:07:34;9.80;;;1.80;;
5349;SDS011;2697;42.144;24.794;2023-05-18T15:09:59;3.80;;;2.80;;
5349;SDS011;2697;42.144;24.794;2023-05-18T15:12:25;2.80;;;2.30;;